AirNav   Air Wisconsin Up To $57,000 Bonus
 
 1635 users online  

0IA4 Sharar Field Airport
Mediapolis, Iowa, USA

GOING TO MEDIAPOLIS?


FAA INFORMATION EFFECTIVE 08 OCTOBER 2020

Location

FAA Identifier: 0IA4
Lat/Long: 41-02-00.1260N 091-03-00.5220W
41-02.002100N 091-03.008700W
41.0333683,-91.0501450
(estimated)
Elevation: 700 ft. / 213 m (estimated)
Variation: 02E (1985)
From city: 5 miles NE of MEDIAPOLIS, IA
Time zone: UTC -5 (UTC -6 during Standard Time)
Zip code: 52646

Airport Operations

Airport use: Private use. Permission required prior to landing
Activation date: 07/1966
Control tower: no
ARTCC: CHICAGO CENTER
FSS: FORT DODGE FLIGHT SERVICE STATION
Attendance: UNATNDD
Wind indicator: yes
Segmented circle: no
Lights: FOR RWY LGTS CALL 319-394-3769.

Airport Communications

WX ASOS at BRL (15 nm S): 118.025 (319-752-6246)

Nearby radio navigation aids

VOR radial/distance  VOR name  Freq  Var
BRLr338/19.4BURLINGTON VOR/DME111.4005E
MZVr222/25.4MOLINE VOR/DME114.4005E
GBGr279/28.5GALESBURG VOR/DME109.8003E
IOWr134/38.6IOWA CITY VOR/DME116.2005E

 
NDB name  Hdg/Dist  Freq  Var  ID
MACOMB323/38.125101EJZY .--- --.. -.--
KEOKUK025/38.336602EEOK . --- -.-

Airport Services

Airframe service: MAJOR
Powerplant service: MAJOR

Runway Information

Runway 9/27

Dimensions: 3000 x 100 ft. / 914 x 30 m
Surface: turf
Runway edge lights: low intensity
RUNWAY 9  RUNWAY 27
Traffic pattern: leftleft
Obstructions: 4 ft. fence, lighted, 40 ft. from runwaynone

Airport Ownership and Management from official FAA records

Ownership: Privately-owned
Owner: ROBERT W SHARAR
7246 235TH STREET
MEDIAPOLIS, IA 52637
Phone 319-394-3769
Manager: ROBERT W SHARAR
7246 235TH STREET
MEDIAPOLIS, IA 52637
Phone 319-394-3769

Airport Operational Statistics

Aircraft based on the field: 4
Single engine airplanes: 4
    

Additional Remarks

LANDING BY PERMISSION ONLY.
FOR CD CTC CHICAGO ARTCC AT 630-906-8921.

Instrument Procedures

There are no published instrument procedures at 0IA4.

Some nearby airports with instrument procedures:

KBRL - Southeast Iowa Regional Airport (15 nm S)
C66 - Monmouth Municipal Airport (20 nm E)
KMUT - Muscatine Municipal Airport (21 nm N)
KMPZ - Mount Pleasant Municipal Airport (22 nm W)
KFSW - Fort Madison Municipal Airport (26 nm SW)
 
Loc | Ops | Rwys | IFR | FBO | Links
Com | Nav | Svcs | Stats | Notes
Area around 0IA4 (Sharar Field Airport)
 
Road maps at: MapQuest Bing Google
 
Aerial photo
No photo
 
Sectional chart

 
Airport distance calculator
Flying to Sharar Field Airport? Find the distance to fly.

From to 0IA4

Sunrise and sunset
Times for 20-Oct-2020
 Local
(UTC-5)
 Zulu
(UTC)
Morning civil twilight06:5511:55
Sunrise07:2312:23
Sunset18:1423:14
Evening civil twilight18:4223:42

Current date and time
Zulu (UTC)  20-Oct-2020 17:44:43
Local (UTC-5)  20-Oct-2020 12:44:43
 
METAR
KBRL 
16nm S 
201653Z AUTO 10007G18KT 9SM OVC039 08/04 A3013 RMK AO2 SLP209 T00780039
KMUT 
20nm N 
201735Z AUTO 13011KT 10SM BKN019 OVC034 08/05 A3014 RMK AO2
KMPZ 
22nm W 
201715Z AUTO 11013KT 10SM SCT018 OVC033 08/05 A3013 RMK AO2
KFSW 
25nm SW 
201735Z AUTO 11009KT 10SM OVC034 08/05 A3011 RMK AO2
KGBG 
29nm E 
201735Z AUTO 10010G15KT 10SM OVC040 07/03 A3015 RMK AO2 LTG DSNT SE THRU SW T00680025
KAWG 
31nm NW 
201735Z AUTO 11013KT 9SM BKN014 BKN031 07/05 A3010 RMK AO2
TAF
KBRL 
16nm S 
201440Z 2015/2112 09010KT P6SM FEW008 OVC035 FM201900 11008KT P6SM OVC025 FM210000 VRB03KT 5SM -RADZ BR OVC008 TEMPO 2100/2103 3SM -DZ BR OVC005 FM210300 27006KT 5SM BR OVC012
NOTAMs
Click for the latest NOTAMs
NOTAMs are issued by the DoD/FAA and will open in a separate window not controlled by AirNav.

 

 
 

Would you like to see your business listed on this page?

 If your business provides an interesting product or service to pilots, flight crews, aircraft, or users of the Sharar Field Airport, you should consider listing it here.  To start the listing process, click on the button below
 
Add a business
 

Other Pages about Sharar Field Airport

Update a link
 
Copyright © AirNav, LLC. All rights reserved. Privacy Policy  Contact